Airport Name : Holloman AFB

Other Name : Holloman AFB

ICAO : KHMN

IATA : HMN

FAA : HMN

Latitude : 32.852519

Longitude : -106.106525

Country : United States

Local Date and Time : 16 Oct 2021 23:50

 

TAF (Terminal Aerodrome Forecast)

TAF AMD KHMN 170200Z 1702/1807 VRB06KT 9999 FEW250 QNH3026INS BECMG 1717/1718 17012KT 9999 SCT250 QNH3009INS TX23/1722Z TN07/1713Z

 

METAR (METeorological Aerodrome Report)

KHMN 170458Z AUTO 30007KT 10SM CLR 11/M06 A3033 RMK AO2 SLP235 T01091056 $

KHMN 170358Z AUTO 00000KT 10SM CLR 12/M06 A3032 RMK AO2 SLPNO T01181057 $

KHMN 170258Z AUTO 12005KT 10SM CLR 16/M05 A3031 RMK AO2 SLPNO T01611051 52007 $

KHMN 170158Z AUTO 14009KT 10SM CLR 17/M05 A3030 RMK AO2 SLPNO T01741046 $

To Charter a Jet Click here.